createdAt,value
2019-03-18T00:01:37.231Z,83.11
2019-03-18T00:04:07.260Z,83.56
2019-03-18T00:06:37.297Z,83.61
2019-03-18T00:09:07.319Z,83.36
2019-03-18T00:11:37.369Z,83.59
2019-03-18T00:14:07.392Z,83.59
2019-03-18T00:16:37.416Z,81.70
2019-03-18T00:19:07.433Z,81.00
2019-03-18T00:21:37.465Z,80.78
2019-03-18T00:24:07.801Z,81.08
2019-03-18T00:26:38.104Z,80.50
2019-03-18T00:29:08.138Z,80.50
2019-03-18T00:31:38.171Z,80.59
2019-03-18T00:34:08.190Z,79.90
2019-03-18T00:36:38.240Z,79.32
2019-03-18T00:39:08.611Z,78.58
2019-03-18T00:41:38.940Z,78.69
2019-03-18T00:44:08.989Z,77.80
2019-03-18T00:46:39.018Z,78.91
2019-03-18T00:49:09.409Z,79.38
2019-03-18T00:51:39.435Z,79.01
2019-03-18T00:54:09.448Z,79.60
2019-03-18T00:56:39.823Z,78.71
2019-03-18T00:59:09.845Z,79.30
2019-03-18T01:01:39.894Z,79.76
2019-03-18T01:06:49.611Z,79.98
2019-03-18T01:09:19.637Z,79.84
2019-03-18T01:11:49.677Z,80.03
2019-03-18T01:14:19.718Z,80.66
2019-03-18T01:16:49.751Z,80.17
2019-03-18T01:19:19.773Z,80.57
2019-03-18T01:21:49.823Z,80.93
2019-03-18T01:24:20.132Z,81.38
2019-03-18T01:26:50.464Z,81.22
2019-03-18T01:29:20.777Z,80.94
2019-03-18T01:31:51.094Z,80.88
2019-03-18T01:34:21.122Z,80.99
2019-03-18T01:36:51.536Z,80.36
2019-03-18T01:42:00.945Z,80.52
2019-03-18T01:44:30.994Z,80.68
2019-03-18T01:47:01.043Z,80.80
2019-03-18T01:49:31.155Z,80.68
2019-03-18T01:52:01.484Z,80.99
2019-03-18T01:54:31.500Z,80.85
2019-03-18T01:57:01.531Z,81.10
2019-03-18T01:59:31.924Z,81.22
2019-03-18T02:02:01.942Z,81.07
2019-03-18T02:04:32.251Z,81.29
2019-03-18T02:07:02.295Z,81.55
2019-03-18T02:09:32.318Z,81.69
2019-03-18T02:12:02.362Z,80.99
2019-03-18T02:14:32.388Z,81.34
2019-03-18T02:17:02.422Z,82.09
2019-03-18T02:19:32.489Z,82.06
2019-03-18T02:22:02.539Z,81.44
2019-03-18T02:24:32.549Z,81.22
2019-03-18T02:27:02.579Z,81.32
2019-03-18T02:29:32.621Z,81.66
2019-03-18T02:32:02.960Z,82.23
2019-03-18T02:34:32.961Z,82.65
2019-03-18T02:37:03.062Z,82.92
2019-03-18T02:39:33.058Z,82.85
2019-03-18T02:42:03.099Z,83.13
2019-03-18T02:44:33.426Z,82.92
2019-03-18T02:47:03.760Z,82.63
2019-03-18T02:49:33.788Z,82.86
2019-03-18T02:52:03.838Z,83.19
2019-03-18T02:54:34.207Z,83.22
2019-03-18T02:57:04.251Z,83.17
2019-03-18T02:59:34.304Z,83.25
2019-03-18T03:02:04.656Z,83.49
2019-03-18T03:07:14.043Z,83.64
2019-03-18T03:09:44.422Z,83.38
2019-03-18T03:12:14.472Z,83.66
2019-03-18T03:14:44.508Z,83.12
2019-03-18T03:17:14.880Z,83.07
2019-03-18T03:19:44.926Z,82.61
2019-03-18T03:22:14.949Z,83.11
2019-03-18T03:24:44.980Z,82.95
2019-03-18T03:27:15.022Z,83.27
2019-03-18T03:29:45.063Z,83.15
2019-03-18T03:32:15.078Z,83.05
2019-03-18T03:34:45.412Z,82.93
2019-03-18T03:37:15.452Z,82.86
2019-03-18T03:39:45.837Z,82.01
2019-03-18T03:42:15.883Z,82.81
2019-03-18T03:44:45.905Z,83.30
2019-03-18T03:47:15.967Z,83.04
2019-03-18T03:49:45.993Z,82.99
2019-03-18T03:52:16.331Z,82.89
2019-03-18T03:54:46.351Z,82.69
2019-03-18T03:57:16.381Z,82.42
2019-03-18T03:59:46.407Z,81.84
2019-03-18T04:02:16.791Z,82.07
2019-03-18T04:07:26.169Z,82.00
2019-03-18T04:09:56.487Z,82.15
2019-03-18T04:12:26.521Z,82.25
2019-03-18T04:14:56.573Z,82.36
2019-03-18T04:17:26.619Z,81.75
2019-03-18T04:19:56.649Z,82.12
2019-03-18T04:22:26.969Z,81.99
2019-03-18T04:24:57.000Z,82.75
2019-03-18T04:27:27.024Z,82.78
2019-03-18T04:29:57.054Z,82.49
2019-03-18T04:32:27.340Z,82.33
2019-03-18T04:34:57.363Z,82.44
2019-03-18T04:37:27.797Z,82.51
2019-03-18T04:39:57.785Z,82.92
2019-03-18T04:42:28.092Z,82.74
2019-03-18T04:44:58.427Z,82.69
2019-03-18T04:47:28.474Z,82.46
2019-03-18T04:49:58.858Z,83.03
2019-03-18T04:52:29.171Z,82.81
2019-03-18T04:54:59.198Z,82.90
2019-03-18T04:57:29.533Z,82.88
2019-03-18T04:59:59.849Z,83.54
2019-03-18T05:02:30.164Z,83.26
2019-03-18T05:07:39.920Z,82.92
2019-03-18T05:10:10.246Z,82.83
2019-03-18T05:12:40.271Z,83.22
2019-03-18T05:15:10.283Z,83.28
2019-03-18T05:17:40.315Z,83.31
2019-03-18T05:20:13.277Z,82.89
2019-03-18T05:22:43.318Z,82.68
2019-03-18T05:25:13.363Z,82.39
2019-03-18T05:27:43.740Z,82.79
2019-03-18T05:30:13.744Z,83.05
2019-03-18T05:32:43.785Z,82.24
2019-03-18T05:35:14.082Z,82.31
2019-03-18T05:37:44.407Z,82.79
2019-03-18T05:40:14.733Z,82.73
2019-03-18T05:45:24.480Z,82.13
2019-03-18T05:47:54.524Z,82.21
2019-03-18T05:50:29.299Z,82.62
2019-03-18T05:52:59.655Z,82.89
2019-03-18T05:55:29.670Z,82.95
2019-03-18T05:57:59.716Z,83.09
2019-03-18T06:00:29.736Z,83.44
2019-03-18T06:05:39.136Z,83.61
2019-03-18T06:08:11.457Z,83.24
2019-03-18T06:10:39.191Z,82.63
2019-03-18T06:13:09.500Z,82.77
2019-03-18T06:15:39.541Z,81.66
2019-03-18T06:20:48.956Z,80.26
2019-03-18T06:23:18.992Z,79.52
2019-03-18T06:28:28.669Z,79.04
2019-03-18T06:30:58.696Z,79.46
2019-03-18T06:33:28.724Z,78.90
2019-03-18T06:35:58.745Z,78.15
2019-03-18T06:38:28.793Z,77.82
2019-03-18T06:40:58.826Z,77.60
2019-03-18T06:43:29.151Z,77.05
2019-03-18T06:45:59.716Z,76.81
2019-03-18T06:51:09.435Z,76.16
2019-03-18T06:53:40.263Z,75.68
2019-03-18T06:56:09.761Z,75.43
2019-03-18T06:58:40.085Z,74.74
2019-03-18T07:01:10.109Z,75.37
2019-03-18T07:03:40.168Z,75.49
2019-03-18T07:06:10.204Z,75.38
2019-03-18T07:08:40.557Z,75.41
2019-03-18T07:11:10.593Z,75.18
2019-03-18T07:13:41.002Z,74.75
2019-03-18T07:16:11.037Z,74.71
2019-03-18T07:21:20.796Z,74.39
2019-03-18T07:23:50.835Z,73.97
2019-03-18T07:26:20.852Z,73.55
2019-03-18T07:28:50.911Z,73.20
2019-03-18T07:31:20.940Z,73.28
2019-03-18T07:36:30.608Z,73.34
2019-03-18T07:39:00.914Z,73.48
2019-03-18T07:41:30.930Z,73.33
2019-03-18T07:44:00.980Z,73.11
2019-03-18T07:46:31.015Z,73.11
2019-03-18T07:49:01.051Z,73.09
2019-03-18T07:51:31.078Z,73.26
2019-03-18T07:54:01.144Z,73.57
2019-03-18T07:56:31.163Z,73.40
2019-03-18T07:59:01.198Z,73.22
2019-03-18T08:01:31.555Z,73.10
2019-03-18T08:04:01.652Z,72.83
2019-03-18T08:06:31.635Z,73.01
2019-03-18T08:09:02.014Z,73.23
2019-03-18T08:11:32.043Z,72.57
2019-03-18T08:14:02.375Z,72.41
2019-03-18T08:16:32.388Z,73.16
2019-03-18T08:21:42.387Z,72.94
2019-03-18T08:24:12.459Z,71.76
2019-03-18T08:26:42.488Z,71.35
2019-03-18T08:29:12.796Z,71.42
2019-03-18T08:31:43.099Z,72.21
2019-03-18T08:34:13.142Z,72.21
2019-03-18T08:36:43.170Z,71.86
2019-03-18T08:39:13.560Z,71.01
2019-03-18T08:41:43.596Z,70.70
2019-03-18T08:44:13.649Z,70.15
2019-03-18T08:46:43.683Z,68.11
2019-03-18T08:51:53.085Z,69.11
2019-03-18T08:54:23.120Z,70.76
2019-03-18T08:56:53.134Z,71.74
2019-03-18T08:59:23.187Z,71.60
2019-03-18T09:04:32.576Z,71.28
2019-03-18T09:07:02.615Z,70.48
2019-03-18T09:09:32.651Z,70.48
2019-03-18T09:12:03.012Z,69.93
2019-03-18T09:14:33.073Z,69.64
2019-03-18T09:17:03.112Z,68.95
2019-03-18T09:19:33.148Z,68.95
2019-03-18T09:22:03.174Z,70.96
2019-03-18T09:24:33.210Z,71.07
2019-03-18T09:27:03.243Z,71.82
2019-03-18T09:29:33.311Z,72.21
2019-03-18T09:32:03.343Z,73.03
2019-03-18T09:34:33.379Z,73.08
2019-03-18T09:37:03.411Z,72.46
2019-03-18T09:39:33.457Z,70.79
2019-03-18T09:42:03.479Z,70.53
2019-03-18T09:44:33.546Z,68.61
2019-03-18T09:47:03.842Z,67.95
2019-03-18T09:49:33.886Z,68.18
2019-03-18T09:52:03.910Z,68.02
2019-03-18T09:54:33.963Z,68.39
2019-03-18T09:57:03.974Z,68.42
2019-03-18T09:59:34.330Z,68.13
2019-03-18T10:02:04.361Z,68.51
2019-03-18T10:04:34.409Z,68.32
2019-03-18T10:07:04.435Z,69.09
2019-03-18T10:09:34.461Z,69.10
2019-03-18T10:12:04.494Z,69.04
2019-03-18T10:14:34.530Z,67.73
2019-03-18T10:17:09.685Z,67.22
2019-03-18T10:22:14.340Z,64.36
2019-03-18T10:24:44.411Z,62.09
2019-03-18T10:27:14.439Z,62.76
2019-03-18T10:29:44.484Z,62.16
2019-03-18T10:32:14.511Z,60.28
2019-03-18T10:34:44.562Z,61.03
2019-03-18T10:37:14.595Z,60.63
2019-03-18T10:39:44.662Z,62.20
2019-03-18T10:42:14.694Z,61.58
2019-03-18T10:44:44.728Z,62.30
2019-03-18T10:47:14.766Z,61.51
2019-03-18T10:52:24.540Z,61.31
2019-03-18T10:54:54.590Z,61.45
2019-03-18T10:57:24.609Z,60.85
2019-03-18T10:59:54.657Z,60.14
2019-03-18T11:02:24.694Z,61.23
2019-03-18T11:04:54.998Z,60.41
2019-03-18T11:07:25.339Z,59.88
2019-03-18T11:09:55.376Z,60.10
2019-03-18T11:12:25.775Z,61.22
2019-03-18T11:14:56.082Z,60.91
2019-03-18T11:17:26.406Z,59.52
2019-03-18T11:19:58.858Z,60.32
2019-03-18T11:22:26.747Z,61.21
2019-03-18T11:24:56.786Z,61.42
2019-03-18T11:27:26.799Z,67.61
2019-03-18T11:29:56.861Z,75.74
2019-03-18T11:32:26.915Z,78.77
2019-03-18T11:34:57.046Z,80.62
2019-03-18T11:37:27.018Z,81.90
2019-03-18T11:39:57.062Z,81.66
2019-03-18T11:42:27.094Z,81.84
2019-03-18T11:44:57.134Z,81.92
2019-03-18T11:47:27.542Z,80.68
2019-03-18T11:50:09.989Z,80.64
2019-03-18T11:52:27.663Z,80.32
2019-03-18T11:54:57.711Z,81.27
2019-03-18T11:57:27.738Z,80.51
2019-03-18T11:59:58.199Z,80.23
2019-03-18T12:02:28.296Z,78.88
2019-03-18T12:04:58.277Z,75.80
2019-03-18T12:07:28.308Z,76.23
2019-03-18T12:09:58.325Z,74.28
2019-03-18T12:12:28.389Z,73.56
2019-03-18T12:14:58.703Z,72.23
2019-03-18T12:17:28.724Z,72.69
2019-03-18T12:19:58.741Z,70.50
2019-03-18T12:22:28.783Z,71.24
2019-03-18T12:24:58.817Z,71.09
2019-03-18T12:27:29.191Z,69.69
2019-03-18T12:29:59.215Z,66.35
2019-03-18T12:32:29.249Z,66.82
2019-03-18T12:34:59.287Z,66.97
2019-03-18T12:37:29.655Z,64.77
2019-03-18T12:39:59.684Z,63.92
2019-03-18T12:42:30.004Z,65.94
2019-03-18T12:45:00.035Z,69.47
2019-03-18T12:47:30.357Z,67.87
2019-03-18T12:50:00.399Z,69.93
2019-03-18T12:52:30.431Z,70.51
2019-03-18T12:55:00.466Z,71.12
2019-03-18T12:57:30.508Z,72.11
2019-03-18T13:00:00.526Z,73.32
2019-03-18T13:02:30.559Z,74.16
2019-03-18T13:05:00.600Z,73.97
2019-03-18T13:07:30.640Z,73.63
2019-03-18T13:10:00.983Z,72.80
2019-03-18T13:12:31.023Z,74.04
2019-03-18T13:15:01.077Z,72.94
2019-03-18T13:17:31.091Z,72.22
2019-03-18T13:20:01.118Z,71.96
2019-03-18T13:22:31.470Z,72.31
2019-03-18T13:25:01.520Z,72.77
2019-03-18T13:27:31.549Z,71.87
2019-03-18T13:30:01.574Z,71.71
2019-03-18T13:32:31.610Z,70.25
2019-03-18T13:35:01.968Z,68.11
2019-03-18T13:37:32.007Z,67.07
2019-03-18T13:40:02.046Z,67.07
2019-03-18T13:42:32.086Z,67.92
2019-03-18T13:45:02.110Z,69.13
2019-03-18T13:47:32.450Z,69.95
2019-03-18T13:50:02.503Z,70.03
2019-03-18T13:52:32.893Z,69.73
2019-03-18T13:55:03.215Z,70.81
2019-03-18T13:57:33.485Z,72.85
2019-03-18T14:00:03.864Z,74.01
2019-03-18T14:02:33.895Z,73.92
2019-03-18T14:05:03.925Z,74.41
2019-03-18T14:07:33.960Z,74.03
2019-03-18T14:10:04.348Z,72.57
2019-03-18T14:12:36.990Z,72.39
2019-03-18T14:15:04.972Z,71.88
2019-03-18T14:17:35.295Z,71.25
2019-03-18T14:20:05.315Z,70.92
2019-03-18T14:22:35.342Z,69.44
2019-03-18T14:25:05.371Z,69.84
2019-03-18T14:27:35.414Z,67.34
2019-03-18T14:30:14.250Z,64.80
2019-03-18T14:35:23.650Z,64.73
2019-03-18T14:37:54.049Z,63.41
2019-03-18T14:40:24.076Z,63.94
2019-03-18T14:42:54.121Z,64.38
2019-03-18T14:45:24.414Z,64.42
2019-03-18T14:47:54.452Z,63.55
2019-03-18T14:50:24.473Z,65.47
2019-03-18T14:52:54.511Z,65.44
2019-03-18T14:55:24.905Z,65.68
2019-03-18T14:57:54.946Z,65.73
2019-03-18T15:00:27.878Z,67.26
2019-03-18T15:05:37.553Z,65.94
2019-03-18T15:08:07.589Z,65.65
2019-03-18T15:10:37.605Z,65.27
2019-03-18T15:13:07.983Z,65.24
2019-03-18T15:15:38.055Z,65.76
2019-03-18T15:20:47.446Z,64.94
2019-03-18T15:23:17.778Z,64.51
2019-03-18T15:25:48.094Z,61.09
2019-03-18T15:28:18.132Z,59.75
2019-03-18T15:30:48.461Z,59.92
2019-03-18T15:33:18.500Z,61.14
2019-03-18T15:35:49.037Z,61.12
2019-03-18T15:38:19.082Z,62.05
2019-03-18T15:40:49.431Z,66.90
2019-03-18T15:43:19.609Z,69.98
2019-03-18T15:45:50.068Z,72.10
2019-03-18T15:48:20.118Z,73.29
2019-03-18T15:50:50.134Z,71.26
2019-03-18T15:53:20.548Z,70.42
2019-03-18T15:55:50.541Z,69.97
2019-03-18T15:58:20.600Z,70.86
2019-03-18T16:00:50.640Z,71.34
2019-03-18T16:03:20.653Z,71.80
2019-03-18T16:05:51.007Z,71.23
2019-03-18T16:08:21.390Z,70.44
2019-03-18T16:10:51.421Z,70.12
2019-03-18T16:13:21.792Z,68.81
2019-03-18T16:15:52.090Z,67.10
2019-03-18T16:18:22.135Z,67.13
2019-03-18T16:20:52.436Z,66.94
2019-03-18T16:23:22.495Z,66.10
2019-03-18T16:25:52.866Z,64.88
2019-03-18T16:28:22.908Z,65.14
2019-03-18T16:30:53.206Z,66.69
2019-03-18T16:33:23.529Z,66.46
2019-03-18T16:35:54.011Z,65.76
2019-03-18T16:38:24.036Z,64.39
2019-03-18T16:40:53.999Z,64.78
2019-03-18T16:43:24.161Z,65.65
2019-03-18T16:45:54.349Z,64.58
2019-03-18T16:48:24.388Z,64.88
2019-03-18T16:50:54.432Z,65.17
2019-03-18T16:56:04.106Z,66.43
2019-03-18T16:58:34.161Z,66.20
2019-03-18T17:01:04.177Z,65.39
2019-03-18T17:03:34.583Z,65.62
2019-03-18T17:06:04.609Z,65.42
2019-03-18T17:11:14.804Z,65.92
2019-03-18T17:13:45.174Z,66.58
2019-03-18T17:16:15.207Z,67.35
2019-03-18T17:18:45.284Z,68.35
2019-03-18T17:21:15.317Z,67.93
2019-03-18T17:23:45.761Z,67.65
2019-03-18T17:26:15.785Z,68.67
2019-03-18T17:28:46.083Z,67.71
2019-03-18T17:31:16.428Z,68.15
2019-03-18T17:33:46.743Z,68.40
2019-03-18T17:36:17.026Z,67.71
2019-03-18T17:38:47.079Z,67.70
2019-03-18T17:41:17.174Z,66.66
2019-03-18T17:43:47.220Z,66.44
2019-03-18T17:46:17.299Z,66.36
2019-03-18T17:48:47.402Z,67.34
2019-03-18T17:51:17.771Z,68.10
2019-03-18T17:53:48.088Z,67.90
2019-03-18T17:56:29.318Z,68.34
2019-03-18T18:01:27.519Z,68.20
2019-03-18T18:03:57.566Z,68.60
2019-03-18T18:09:07.346Z,69.67
2019-03-18T18:11:37.644Z,70.16
2019-03-18T18:14:07.963Z,71.63
2019-03-18T18:16:38.130Z,71.15
2019-03-18T18:19:08.595Z,71.07
2019-03-18T18:24:18.022Z,70.13
2019-03-18T18:29:27.721Z,68.84
2019-03-18T18:31:57.771Z,68.83
2019-03-18T18:34:27.810Z,69.90
2019-03-18T18:36:57.839Z,70.14
2019-03-18T18:39:27.861Z,70.22
2019-03-18T18:41:58.025Z,71.17
2019-03-18T18:44:28.265Z,70.55
2019-03-18T18:46:58.543Z,70.96
2019-03-18T18:49:28.587Z,69.89
2019-03-18T18:51:58.917Z,69.67
2019-03-18T18:54:29.302Z,70.21
2019-03-18T18:56:59.660Z,70.81
2019-03-18T18:59:29.723Z,71.46
2019-03-18T19:02:00.067Z,70.72
2019-03-18T19:07:09.821Z,71.01
2019-03-18T19:09:40.356Z,71.89
2019-03-18T19:12:10.672Z,72.45
2019-03-18T19:14:40.768Z,72.76
2019-03-18T19:17:10.774Z,72.92
2019-03-18T19:19:40.838Z,72.65
2019-03-18T19:22:10.833Z,73.01
2019-03-18T19:24:41.262Z,73.24
2019-03-18T19:27:11.305Z,72.07
2019-03-18T19:32:20.813Z,71.48
2019-03-18T19:34:50.876Z,71.48
2019-03-18T19:37:20.996Z,70.76
2019-03-18T19:39:51.075Z,71.97
2019-03-18T19:42:21.225Z,72.97
2019-03-18T19:44:51.274Z,73.14
2019-03-18T19:47:21.325Z,73.71
2019-03-18T19:52:31.447Z,74.17
2019-03-18T19:55:01.498Z,74.06
2019-03-18T19:57:31.513Z,74.26
2019-03-18T20:00:01.570Z,74.46
2019-03-18T20:02:31.594Z,74.95
2019-03-18T20:05:01.640Z,75.28
2019-03-18T20:07:31.783Z,74.94
2019-03-18T20:10:01.768Z,74.94
2019-03-18T20:12:31.961Z,74.71
2019-03-18T20:17:41.356Z,74.38
2019-03-18T20:22:50.578Z,72.79
2019-03-18T20:25:20.652Z,71.50
2019-03-18T20:27:50.684Z,71.54
2019-03-18T20:30:23.311Z,71.67
2019-03-18T20:32:53.671Z,70.87
2019-03-18T20:35:23.716Z,71.04
2019-03-18T20:37:53.742Z,71.59
2019-03-18T20:40:23.791Z,72.03
2019-03-18T20:42:54.235Z,71.90
2019-03-18T20:45:27.199Z,72.30
2019-03-18T20:47:57.471Z,71.81
2019-03-18T20:50:27.547Z,72.10
2019-03-18T20:52:57.642Z,72.10
2019-03-18T20:55:28.055Z,72.55
2019-03-18T20:57:58.308Z,72.44
2019-03-18T21:00:28.650Z,73.15
2019-03-18T21:02:58.666Z,73.58
2019-03-18T21:08:08.414Z,74.88
2019-03-18T21:10:38.545Z,75.31
2019-03-18T21:13:08.594Z,75.50
2019-03-18T21:15:39.216Z,76.02
2019-03-18T21:18:09.200Z,76.02
2019-03-18T21:20:39.237Z,75.72
2019-03-18T21:23:09.610Z,75.90
2019-03-18T21:25:39.713Z,74.98
2019-03-18T21:28:09.767Z,75.25
2019-03-18T21:30:40.032Z,75.49
2019-03-18T21:33:10.523Z,75.05
2019-03-18T21:35:40.482Z,75.61
2019-03-18T21:38:10.641Z,75.74
2019-03-18T21:40:40.610Z,76.13
2019-03-18T21:45:50.344Z,76.91
2019-03-18T21:48:20.374Z,77.23
2019-03-18T21:50:50.409Z,77.18
2019-03-18T21:56:00.135Z,76.71
2019-03-18T21:58:30.165Z,76.63
2019-03-18T22:01:00.200Z,76.43
2019-03-18T22:03:30.558Z,75.62
2019-03-18T22:08:39.967Z,74.76
2019-03-18T22:11:10.021Z,74.42
2019-03-18T22:13:40.350Z,74.48
2019-03-18T22:16:10.418Z,74.41
2019-03-18T22:21:19.819Z,75.97
2019-03-18T22:23:49.867Z,75.86
2019-03-18T22:26:19.882Z,76.14
2019-03-18T22:28:49.914Z,76.37
2019-03-18T22:31:20.289Z,76.70
2019-03-18T22:33:50.316Z,77.02
2019-03-18T22:36:20.344Z,76.86
2019-03-18T22:38:50.643Z,76.96
2019-03-18T22:41:20.675Z,77.16
2019-03-18T22:43:50.709Z,77.91
2019-03-18T22:46:20.742Z,78.10
2019-03-18T22:51:30.144Z,78.31
2019-03-18T22:54:00.167Z,78.79
2019-03-18T22:56:30.211Z,78.89
2019-03-18T22:59:00.231Z,79.44
2019-03-18T23:01:30.269Z,79.38
2019-03-18T23:04:00.620Z,79.51
2019-03-18T23:06:30.958Z,79.48
2019-03-18T23:09:00.986Z,78.83
2019-03-18T23:11:31.024Z,79.45
2019-03-18T23:14:01.398Z,79.63
2019-03-18T23:16:31.728Z,80.16
2019-03-18T23:21:41.121Z,80.21
2019-03-18T23:26:50.499Z,80.16
2019-03-18T23:29:20.530Z,80.87
2019-03-18T23:31:50.563Z,80.81
2019-03-18T23:34:20.591Z,80.94
2019-03-18T23:36:50.629Z,80.85
2019-03-18T23:39:20.659Z,80.81
2019-03-18T23:41:50.704Z,80.70
2019-03-18T23:44:21.037Z,81.25
2019-03-18T23:46:51.363Z,80.83
2019-03-18T23:49:21.391Z,81.34
2019-03-18T23:51:51.431Z,81.39
2019-03-18T23:54:21.481Z,81.25
2019-03-18T23:56:51.513Z,81.78
2019-03-18T23:59:21.543Z,81.46
